Time;durP1;ratioP1;P1;durP2;ratioP2;P2;SDS_P1;SDS_P2;PMS_P1;PMS_P2;Temp;Humidity;BMP_temperature;BMP_pressure;BME280_temperature;BME280_humidity;BME280_pressure;Samples;Min_cycle;Max_cycle;Signal;HPM_P1;HPM_P2
2022/01/25 00:27:24;;;;;;;27.80;16.55;;;;;;;;;;5027727;28;20106;-67
2022/01/25 00:32:20;;;;;;;28.05;16.05;;;;;;;;;;5050872;28;19967;-68
2022/01/25 00:34:47;;;;;;;30.83;17.23;;;;;;;;;;5050894;28;20416;-68
2022/01/25 00:37:14;;;;;;;29.73;17.42;;;;;;;;;;5050740;28;20049;-67
2022/01/25 00:39:41;;;;;;;27.77;16.17;;;;;;;;;;5050871;28;20542;-68
2022/01/25 00:42:08;;;;;;;24.27;15.27;;;;;;;;;;5051012;28;20103;-66
2022/01/25 00:44:38;;;;;;;28.98;16.67;;;;;;;;;;5050696;28;20049;-66
2022/01/25 00:47:07;;;;;;;27.92;15.25;;;;;;;;;;5050852;28;20045;-66
2022/01/25 00:49:38;;;;;;;31.95;15.93;;;;;;;;;;5054247;28;20053;-67
2022/01/25 00:55:02;;;;;;;28.42;15.45;;;;;;;;;;5051665;28;20049;-66
2022/01/25 00:57:28;;;;;;;27.40;15.18;;;;;;;;;;5054039;28;20485;-67
2022/01/25 00:59:55;;;;;;;28.65;15.57;;;;;;;;;;5054252;28;20106;-68
2022/01/25 01:02:22;;;;;;;30.52;15.48;;;;;;;;;;5054159;28;20098;-67
2022/01/25 01:04:50;;;;;;;26.30;14.82;;;;;;;;;;5054232;28;20049;-66
2022/01/25 01:07:17;;;;;;;25.90;15.20;;;;;;;;;;5054012;28;20483;-68
2022/01/25 01:09:46;;;;;;;25.58;14.40;;;;;;;;;;5054019;28;20053;-68
2022/01/25 01:12:26;;;;;;;27.25;14.43;;;;;;;;;;5054017;28;20462;-68
2022/01/25 01:15:05;;;;;;;27.65;15.75;;;;;;;;;;5054032;28;20107;-69
2022/01/25 01:31:48;;;;;;;27.30;15.38;;;;;;;;;;5053816;28;20048;-68
2022/01/25 01:47:44;;;;;;;30.98;16.67;;;;;;;;;;5053146;28;20396;-67
2022/01/25 01:50:26;;;;;;;30.08;16.52;;;;;;;;;;5053100;28;20049;-68
2022/01/25 01:52:53;;;;;;;29.50;16.20;;;;;;;;;;5053070;28;20045;-68
2022/01/25 01:55:20;;;;;;;33.22;16.40;;;;;;;;;;5052757;28;20569;-67
2022/01/25 01:57:49;;;;;;;34.33;17.13;;;;;;;;;;5053150;28;20056;-67
2022/01/25 02:00:20;;;;;;;34.60;18.23;;;;;;;;;;5052903;28;20049;-68
2022/01/25 02:02:47;;;;;;;31.10;16.67;;;;;;;;;;5053007;28;20466;-68
2022/01/25 03:17:52;;;;;;;37.15;18.73;;;;;;;;;;5032015;28;20080;-68
2022/01/25 03:20:22;;;;;;;37.28;18.50;;;;;;;;;;5031875;28;20104;-68
2022/01/25 03:23:17;;;;;;;34.30;18.00;;;;;;;;;;5030771;28;20103;-67
2022/01/25 03:25:38;;;;;;;39.13;18.95;;;;;;;;;;5032207;28;20111;-68
2022/01/25 03:28:05;;;;;;;41.58;20.42;;;;;;;;;;5032005;28;20049;-68
2022/01/25 03:30:31;;;;;;;40.65;19.42;;;;;;;;;;5050631;28;20049;-67
2022/01/25 03:32:58;;;;;;;39.33;19.70;;;;;;;;;;5051351;28;20397;-68
2022/01/25 03:35:25;;;;;;;38.65;19.35;;;;;;;;;;5051488;28;20126;-68
2022/01/25 03:37:51;;;;;;;38.80;19.05;;;;;;;;;;5051552;28;20131;-67
2022/01/25 03:40:18;;;;;;;40.22;20.25;;;;;;;;;;5051558;28;20048;-68
2022/01/25 03:42:45;;;;;;;41.88;19.60;;;;;;;;;;5051448;28;20049;-69
2022/01/25 03:45:19;;;;;;;39.72;18.88;;;;;;;;;;5051458;28;20103;-67
2022/01/25 03:50:31;;;;;;;36.65;18.45;;;;;;;;;;5051431;28;20045;-68
2022/01/25 03:52:57;;;;;;;36.17;19.02;;;;;;;;;;5051325;28;20045;-69
2022/01/25 03:55:24;;;;;;;38.78;19.95;;;;;;;;;;5051170;28;20048;-66
2022/01/25 03:57:50;;;;;;;36.78;19.90;;;;;;;;;;5052062;28;20052;-66
2022/01/25 04:00:17;;;;;;;42.42;21.48;;;;;;;;;;5051503;28;20496;-66
2022/01/25 04:03:31;;;;;;;42.63;18.92;;;;;;;;;;5051067;28;20496;-67
2022/01/25 04:05:38;;;;;;;44.72;19.85;;;;;;;;;;5048196;28;20053;-66
2022/01/25 04:08:05;;;;;;;38.40;20.02;;;;;;;;;;5051286;28;20061;-66
2022/01/25 04:10:31;;;;;;;46.60;22.15;;;;;;;;;;5051125;28;20049;-66
2022/01/25 04:12:58;;;;;;;43.85;20.65;;;;;;;;;;5051037;28;20041;-66
2022/01/25 04:15:25;;;;;;;45.08;21.17;;;;;;;;;;5053319;28;20049;-65
2022/01/25 04:18:01;;;;;;;45.35;21.60;;;;;;;;;;5062940;28;20045;-65
2022/01/25 04:20:34;;;;;;;41.78;20.10;;;;;;;;;;5062424;28;20075;-65
2022/01/25 04:25:46;;;;;;;40.33;20.48;;;;;;;;;;5067696;28;20049;-65
2022/01/25 04:28:12;;;;;;;45.90;20.67;;;;;;;;;;5067357;28;20071;-65
2022/01/25 04:30:39;;;;;;;44.47;22.20;;;;;;;;;;5067547;28;20053;-65
2022/01/25 04:33:17;;;;;;;45.40;20.95;;;;;;;;;;5066878;28;20053;-66
2022/01/25 04:36:09;;;;;;;44.25;21.20;;;;;;;;;;5068861;28;20053;-65
2022/01/25 04:49:42;;;;;;;53.55;23.17;;;;;;;;;;5066394;28;20072;-63
2022/01/25 04:52:14;;;;;;;43.40;21.20;;;;;;;;;;5054939;28;20045;-64
2022/01/25 04:59:51;;;;;;;45.70;21.95;;;;;;;;;;5054361;28;20102;-64
2022/01/25 05:05:11;;;;;;;39.70;20.42;;;;;;;;;;5054351;28;20048;-64
2022/01/25 05:10:09;;;;;;;43.08;20.75;;;;;;;;;;5054312;28;20049;-64
2022/01/25 05:12:45;;;;;;;44.63;20.55;;;;;;;;;;5053918;28;20082;-65
2022/01/25 05:18:19;;;;;;;44.60;22.00;;;;;;;;;;5054200;28;20045;-66
2022/01/25 05:23:30;;;;;;;41.70;21.60;;;;;;;;;;5053553;28;20048;-65
2022/01/25 05:25:57;;;;;;;41.88;19.77;;;;;;;;;;5053642;28;20053;-64
2022/01/25 05:28:24;;;;;;;39.33;19.75;;;;;;;;;;5053207;28;20090;-64
2022/01/25 05:30:50;;;;;;;39.67;18.98;;;;;;;;;;5053063;28;20049;-64
2022/01/25 05:33:17;;;;;;;38.33;20.48;;;;;;;;;;5052990;28;20049;-64
2022/01/25 05:35:44;;;;;;;42.38;20.45;;;;;;;;;;5053606;28;20045;-64
2022/01/25 05:38:11;;;;;;;38.97;20.50;;;;;;;;;;5053497;28;20106;-66
2022/01/25 05:40:46;;;;;;;35.35;19.83;;;;;;;;;;5053263;28;20053;-64
2022/01/25 05:46:10;;;;;;;38.13;20.42;;;;;;;;;;5053164;28;20053;-64
2022/01/25 05:48:37;;;;;;;41.80;20.40;;;;;;;;;;5033305;28;20096;-64
2022/01/25 05:51:04;;;;;;;35.83;19.77;;;;;;;;;;5053093;28;20569;-64
2022/01/25 05:53:31;;;;;;;40.83;21.60;;;;;;;;;;5053265;28;20550;-64
2022/01/25 05:55:57;;;;;;;40.30;20.27;;;;;;;;;;5053484;28;20053;-66
2022/01/25 05:58:24;;;;;;;36.88;20.10;;;;;;;;;;5052991;28;20048;-65
2022/01/25 06:00:51;;;;;;;40.65;19.92;;;;;;;;;;5053032;28;20044;-66
2022/01/25 06:03:18;;;;;;;42.78;21.33;;;;;;;;;;5053039;28;20053;-64
2022/01/25 06:05:45;;;;;;;39.20;19.77;;;;;;;;;;5053117;28;20412;-64
2022/01/25 06:08:11;;;;;;;42.38;20.75;;;;;;;;;;5052856;28;20110;-64
2022/01/25 06:10:38;;;;;;;42.40;19.50;;;;;;;;;;5052340;28;20052;-64
2022/01/25 06:13:05;;;;;;;50.22;21.42;;;;;;;;;;5052610;28;20049;-64
2022/01/25 06:15:31;;;;;;;52.53;24.02;;;;;;;;;;5052475;28;20045;-63
2022/01/25 06:17:58;;;;;;;53.35;25.23;;;;;;;;;;5052681;28;20049;-64
2022/01/25 06:20:25;;;;;;;48.55;23.88;;;;;;;;;;5052521;28;20049;-64
2022/01/25 06:22:51;;;;;;;45.63;21.60;;;;;;;;;;5052198;28;20041;-64
2022/01/25 06:25:18;;;;;;;39.45;20.92;;;;;;;;;;5052352;28;20079;-65
2022/01/25 06:27:44;;;;;;;34.75;18.67;;;;;;;;;;5052520;28;20053;-64
2022/01/25 06:30:14;;;;;;;43.22;19.88;;;;;;;;;;5052479;28;20460;-64
2022/01/25 06:32:41;;;;;;;37.53;19.73;;;;;;;;;;5052141;28;20478;-66
2022/01/25 06:35:08;;;;;;;39.70;21.27;;;;;;;;;;5052337;28;20119;-66
2022/01/25 06:37:35;;;;;;;36.80;20.58;;;;;;;;;;5051977;28;20052;-65
2022/01/25 06:40:02;;;;;;;42.10;19.48;;;;;;;;;;5052245;28;20471;-65
2022/01/25 06:42:31;;;;;;;40.67;20.98;;;;;;;;;;5052608;28;20053;-65
2022/01/25 06:45:04;;;;;;;39.70;19.75;;;;;;;;;;5051510;28;20061;-65
2022/01/25 06:47:30;;;;;;;47.35;20.20;;;;;;;;;;5052084;28;20126;-68
2022/01/25 06:49:57;;;;;;;39.60;20.25;;;;;;;;;;5051959;28;20396;-66
2022/01/25 06:52:24;;;;;;;40.13;20.90;;;;;;;;;;5052078;28;20119;-67
2022/01/25 06:54:50;;;;;;;38.92;19.58;;;;;;;;;;5051909;28;20049;-65
2022/01/25 06:57:18;;;;;;;43.05;21.58;;;;;;;;;;5051470;28;20049;-65
2022/01/25 06:59:44;;;;;;;45.65;21.25;;;;;;;;;;5051983;28;20051;-63
2022/01/25 07:02:12;;;;;;;37.60;19.70;;;;;;;;;;5051884;28;20057;-67
2022/01/25 07:04:39;;;;;;;39.78;20.50;;;;;;;;;;5051512;28;20045;-65
2022/01/25 07:07:05;;;;;;;42.30;21.55;;;;;;;;;;5051549;28;20071;-66
2022/01/25 07:09:32;;;;;;;44.78;21.50;;;;;;;;;;5051725;28;20052;-67
2022/01/25 07:12:00;;;;;;;48.13;22.58;;;;;;;;;;5051891;28;20049;-66
2022/01/25 07:14:26;;;;;;;40.25;20.35;;;;;;;;;;5051610;28;20056;-66
2022/01/25 07:16:54;;;;;;;36.38;18.45;;;;;;;;;;5051528;28;20169;-66
2022/01/25 07:19:21;;;;;;;38.22;20.52;;;;;;;;;;5051682;28;20056;-66
2022/01/25 07:21:48;;;;;;;36.88;19.30;;;;;;;;;;5051576;28;20094;-66
2022/01/25 07:24:14;;;;;;;38.40;19.60;;;;;;;;;;5050028;28;20049;-66
2022/01/25 07:26:41;;;;;;;36.15;19.42;;;;;;;;;;5049465;28;20466;-64
2022/01/25 07:29:08;;;;;;;41.28;20.90;;;;;;;;;;5049370;28;20094;-65
2022/01/25 07:31:34;;;;;;;45.13;20.45;;;;;;;;;;5049396;28;20106;-65
2022/01/25 07:34:04;;;;;;;34.35;18.80;;;;;;;;;;5049231;28;20049;-65
2022/01/25 07:36:39;;;;;;;36.58;19.50;;;;;;;;;;5049112;28;20056;-64
2022/01/25 07:39:20;;;;;;;36.42;19.38;;;;;;;;;;5047606;28;20141;-63
2022/01/25 07:41:53;;;;;;;39.80;20.38;;;;;;;;;;5049475;28;20045;-64
2022/01/25 07:44:36;;;;;;;37.38;19.55;;;;;;;;;;4987177;28;20058;-63
2022/01/25 07:47:03;;;;;;;39.85;20.05;;;;;;;;;;4987277;28;20050;-66
2022/01/25 07:49:32;;;;;;;38.78;19.58;;;;;;;;;;4987294;28;20569;-65
2022/01/25 07:52:01;;;;;;;36.60;19.65;;;;;;;;;;4986949;28;20097;-65
2022/01/25 07:54:27;;;;;;;41.08;19.83;;;;;;;;;;4987081;28;20157;-63
2022/01/25 07:56:54;;;;;;;38.25;20.17;;;;;;;;;;4988640;28;20058;-65
2022/01/25 07:59:20;;;;;;;41.17;19.10;;;;;;;;;;4991085;28;20054;-67
2022/01/25 08:01:47;;;;;;;37.10;19.35;;;;;;;;;;4991259;28;20125;-61
2022/01/25 08:04:25;;;;;;;41.35;20.77;;;;;;;;;;4990440;28;20054;-65
2022/01/25 08:06:56;;;;;;;44.97;21.88;;;;;;;;;;4969005;28;20077;-67
2022/01/25 08:09:29;;;;;;;43.17;19.65;;;;;;;;;;4974190;28;20484;-67
2022/01/25 08:12:11;;;;;;;38.65;19.15;;;;;;;;;;4987859;28;20073;-66
2022/01/25 08:14:53;;;;;;;40.53;20.33;;;;;;;;;;4994469;28;20061;-67
2022/01/25 08:17:24;;;;;;;39.13;19.67;;;;;;;;;;5036969;28;20053;-66
2022/01/25 08:20:13;;;;;;;37.38;20.10;;;;;;;;;;5040822;28;20107;-66
2022/01/25 08:22:51;;;;;;;43.50;22.23;;;;;;;;;;5041520;28;20049;-65
2022/01/25 08:25:34;;;;;;;51.83;21.25;;;;;;;;;;5025040;28;20431;-67
2022/01/25 08:28:10;;;;;;;37.75;20.40;;;;;;;;;;5038117;28;20053;-66
2022/01/25 08:30:51;;;;;;;37.30;20.35;;;;;;;;;;5043511;28;20221;-67
2022/01/25 08:33:57;;;;;;;42.25;19.50;;;;;;;;;;4959946;28;20055;-68
2022/01/25 08:36:29;;;;;;;39.40;21.77;;;;;;;;;;5027132;28;20051;-66
2022/01/25 08:39:03;;;;;;;37.58;19.38;;;;;;;;;;5038138;28;20056;-68
2022/01/25 08:41:39;;;;;;;44.03;21.80;;;;;;;;;;5037137;28;20053;-67
2022/01/25 08:44:15;;;;;;;46.22;25.23;;;;;;;;;;5036716;28;20084;-65
2022/01/25 08:46:42;;;;;;;43.65;22.48;;;;;;;;;;5036996;28;20115;-68
2022/01/25 08:49:23;;;;;;;42.72;22.15;;;;;;;;;;5039600;28;20053;-67
2022/01/25 08:51:53;;;;;;;38.63;19.48;;;;;;;;;;5041623;28;20056;-68
2022/01/25 08:54:28;;;;;;;38.42;20.80;;;;;;;;;;5041381;28;20041;-68
2022/01/25 08:56:55;;;;;;;37.25;20.15;;;;;;;;;;5040281;28;20049;-68
2022/01/25 08:59:29;;;;;;;37.70;19.48;;;;;;;;;;5039456;28;20049;-66
2022/01/25 09:01:56;;;;;;;38.28;19.50;;;;;;;;;;5043582;28;20475;-67
2022/01/25 09:04:23;;;;;;;41.33;20.85;;;;;;;;;;5038592;28;20519;-67
2022/01/25 09:06:50;;;;;;;38.10;20.73;;;;;;;;;;5039774;28;20126;-66
2022/01/25 09:09:16;;;;;;;36.90;19.45;;;;;;;;;;5041522;28;20053;-68
2022/01/25 09:11:43;;;;;;;39.25;20.88;;;;;;;;;;5036250;28;20566;-67
2022/01/25 09:14:10;;;;;;;40.45;21.00;;;;;;;;;;5036492;28;20393;-69
2022/01/25 09:16:37;;;;;;;38.38;21.75;;;;;;;;;;5036777;28;20418;-67
2022/01/25 09:19:04;;;;;;;44.42;22.17;;;;;;;;;;5045323;28;20047;-67
2022/01/25 09:21:31;;;;;;;40.13;21.13;;;;;;;;;;5036219;28;20045;-67
2022/01/25 09:23:58;;;;;;;35.33;20.80;;;;;;;;;;5041852;28;20385;-68
2022/01/25 09:26:24;;;;;;;41.03;20.92;;;;;;;;;;5036722;28;20104;-69
2022/01/25 09:28:54;;;;;;;42.40;21.92;;;;;;;;;;5038156;28;20068;-69
2022/01/25 09:31:22;;;;;;;40.53;21.60;;;;;;;;;;5041806;28;20053;-67
2022/01/25 09:33:49;;;;;;;37.60;20.85;;;;;;;;;;5038815;28;20077;-69
2022/01/25 09:36:16;;;;;;;38.22;21.92;;;;;;;;;;5037654;28;20045;-68
2022/01/25 09:38:42;;;;;;;38.08;21.50;;;;;;;;;;5039671;28;20049;-71
2022/01/25 09:41:09;;;;;;;34.05;19.98;;;;;;;;;;5038460;28;20095;-68
2022/01/25 09:43:36;;;;;;;34.15;19.80;;;;;;;;;;5036446;28;20096;-69
2022/01/25 09:46:03;;;;;;;35.47;19.50;;;;;;;;;;5036984;28;20439;-67
2022/01/25 09:48:30;;;;;;;34.53;19.60;;;;;;;;;;5035029;28;20050;-68
2022/01/25 09:50:58;;;;;;;39.00;20.70;;;;;;;;;;5034689;28;20081;-68
2022/01/25 09:53:25;;;;;;;32.25;20.33;;;;;;;;;;5036140;28;20092;-67
2022/01/25 09:55:52;;;;;;;36.70;21.55;;;;;;;;;;5037638;28;20072;-68
2022/01/25 09:58:19;;;;;;;41.60;20.17;;;;;;;;;;5038869;28;20046;-67
2022/01/25 10:00:47;;;;;;;35.17;20.60;;;;;;;;;;5043276;28;20111;-67
2022/01/25 10:03:23;;;;;;;33.28;21.02;;;;;;;;;;5040612;28;20049;-68
2022/01/25 10:05:51;;;;;;;35.88;20.88;;;;;;;;;;5037889;28;20493;-67
2022/01/25 10:08:21;;;;;;;34.85;20.08;;;;;;;;;;5040936;28;20474;-69
2022/01/25 10:10:50;;;;;;;35.00;20.75;;;;;;;;;;5036730;28;20054;-73
2022/01/25 10:13:21;;;;;;;34.13;19.83;;;;;;;;;;5039258;28;20082;-69
2022/01/25 10:16:06;;;;;;;32.70;19.67;;;;;;;;;;5042083;28;20049;-68
2022/01/25 10:19:10;;;;;;;35.10;20.95;;;;;;;;;;5037365;28;20559;-68
2022/01/25 10:21:38;;;;;;;;;;;;;;;;;;5039188;28;20106;-68
2022/01/25 10:24:14;;;;;;;34.97;19.88;;;;;;;;;;5039123;28;19966;-70
2022/01/25 10:26:48;;;;;;;31.15;19.05;;;;;;;;;;5041996;28;20053;-68
2022/01/25 10:29:17;;;;;;;32.17;19.80;;;;;;;;;;5041333;28;20044;-69
2022/01/25 10:31:50;;;;;;;33.90;19.40;;;;;;;;;;5038103;28;20149;-77
2022/01/25 10:34:26;;;;;;;32.60;19.55;;;;;;;;;;5041840;28;20095;-72
2022/01/25 10:36:53;;;;;;;30.92;19.55;;;;;;;;;;5037431;28;20064;-72
2022/01/25 10:39:27;;;;;;;36.63;20.33;;;;;;;;;;5041047;28;20041;-72
2022/01/25 10:42:34;;;;;;;33.60;21.65;;;;;;;;;;5036202;28;20050;-70
2022/01/25 10:45:05;;;;;;;36.95;20.15;;;;;;;;;;5031582;28;20364;-68
2022/01/25 10:47:51;;;;;;;33.42;21.25;;;;;;;;;;5036709;28;20053;-66
2022/01/25 10:50:26;;;;;;;34.97;19.27;;;;;;;;;;5036180;28;20508;-68
2022/01/25 10:53:05;;;;;;;32.00;20.92;;;;;;;;;;5041605;28;20606;-69
2022/01/25 10:55:54;;;;;;;31.45;20.23;;;;;;;;;;5037200;28;20055;-70
2022/01/25 10:58:23;;;;;;;32.10;20.30;;;;;;;;;;5039974;28;20467;-70
2022/01/25 11:00:51;;;;;;;34.17;20.65;;;;;;;;;;5048516;28;20049;-69
2022/01/25 11:03:34;;;;;;;34.90;21.50;;;;;;;;;;5038792;28;20099;-68
2022/01/25 11:06:28;;;;;;;34.17;21.27;;;;;;;;;;5037301;28;20378;-67
2022/01/25 11:08:59;;;;;;;37.03;21.20;;;;;;;;;;5038190;28;20132;-68
2022/01/25 11:11:29;;;;;;;34.58;20.27;;;;;;;;;;5039881;28;20049;-71
2022/01/25 11:14:00;;;;;;;33.85;20.25;;;;;;;;;;5052695;28;20048;-72
2022/01/25 11:16:27;;;;;;;31.80;20.92;;;;;;;;;;5040153;28;20056;-72
2022/01/25 11:18:56;;;;;;;32.97;20.77;;;;;;;;;;5037355;28;20045;-71
2022/01/25 11:21:23;;;;;;;36.60;20.95;;;;;;;;;;5042316;28;20076;-70
2022/01/25 11:23:50;;;;;;;33.45;21.65;;;;;;;;;;5037060;28;20106;-69
2022/01/25 11:26:16;;;;;;;38.05;22.10;;;;;;;;;;5052009;28;20049;-71
2022/01/25 11:28:45;;;;;;;32.53;20.45;;;;;;;;;;5039376;28;20443;-70
2022/01/25 11:31:17;;;;;;;37.08;22.23;;;;;;;;;;5041309;28;20049;-70
2022/01/25 11:33:45;;;;;;;33.15;21.20;;;;;;;;;;5054614;28;20052;-70
2022/01/25 11:36:12;;;;;;;35.60;22.15;;;;;;;;;;5052869;28;20052;-71
2022/01/25 11:38:43;;;;;;;36.45;22.92;;;;;;;;;;5037045;28;20136;-71
2022/01/25 11:41:14;;;;;;;39.92;21.13;;;;;;;;;;5038654;28;20107;-68
2022/01/25 11:44:02;;;;;;;33.15;20.98;;;;;;;;;;5038916;28;20103;-69
2022/01/25 11:46:29;;;;;;;35.55;22.13;;;;;;;;;;5054704;28;20064;-68
2022/01/25 11:49:04;;;;;;;36.45;24.05;;;;;;;;;;5039606;28;20041;-69
2022/01/25 11:51:30;;;;;;;35.25;21.85;;;;;;;;;;5036410;28;20060;-70
2022/01/25 11:53:57;;;;;;;37.47;22.77;;;;;;;;;;5038186;28;20041;-71
2022/01/25 11:56:25;;;;;;;36.08;21.65;;;;;;;;;;5035978;28;20049;-69
2022/01/25 11:58:58;;;;;;;37.92;24.77;;;;;;;;;;5038861;28;20496;-69
2022/01/25 12:01:26;;;;;;;37.78;24.30;;;;;;;;;;5041692;28;20045;-69
2022/01/25 12:03:58;;;;;;;38.75;24.33;;;;;;;;;;5035833;28;20496;-69
2022/01/25 12:06:32;;;;;;;40.20;23.25;;;;;;;;;;5039421;28;20073;-72
2022/01/25 12:11:45;;;;;;;36.58;23.15;;;;;;;;;;5035386;28;20053;-71
2022/01/25 12:14:23;;;;;;;42.70;24.40;;;;;;;;;;5037736;28;20381;-71
2022/01/25 12:17:03;;;;;;;38.15;23.30;;;;;;;;;;5037372;28;20053;-71
2022/01/25 12:19:30;;;;;;;36.15;21.48;;;;;;;;;;5040556;28;20080;-69
2022/01/25 12:22:34;;;;;;;29.17;18.75;;;;;;;;;;5040678;28;20052;-68
2022/01/25 12:25:15;;;;;;;32.53;20.42;;;;;;;;;;5042943;28;20068;-71
2022/01/25 12:27:59;;;;;;;34.67;22.52;;;;;;;;;;5052910;28;20103;-69
2022/01/25 12:30:26;;;;;;;36.50;20.08;;;;;;;;;;5043597;28;20055;-70
2022/01/25 12:32:59;;;;;;;35.13;21.33;;;;;;;;;;5040846;28;20228;-71
2022/01/25 12:36:00;;;;;;;28.95;19.88;;;;;;;;;;5041033;28;20507;-71
2022/01/25 12:38:43;;;;;;;35.33;20.70;;;;;;;;;;5040591;28;20053;-72
2022/01/25 12:41:18;;;;;;;32.53;21.30;;;;;;;;;;5037798;28;20137;-70
2022/01/25 12:43:53;;;;;;;31.83;20.33;;;;;;;;;;5037324;28;20049;-71
2022/01/25 12:46:24;;;;;;;30.17;20.17;;;;;;;;;;5046141;28;20045;-72
2022/01/25 12:49:13;;;;;;;36.97;22.92;;;;;;;;;;5043598;28;20364;-69
2022/01/25 12:51:41;;;;;;;31.55;20.45;;;;;;;;;;5040718;28;20048;-67
2022/01/25 12:54:11;;;;;;;36.65;21.92;;;;;;;;;;5048257;28;20049;-68
2022/01/25 12:56:43;;;;;;;34.50;23.52;;;;;;;;;;5055914;28;20056;-72
2022/01/25 12:59:16;;;;;;;38.90;23.08;;;;;;;;;;5061409;28;20045;-76
2022/01/25 13:01:44;;;;;;;35.75;22.38;;;;;;;;;;5044750;28;20053;-72
2022/01/25 13:04:11;;;;;;;34.70;22.40;;;;;;;;;;5040088;28;20050;-72
2022/01/25 13:06:41;;;;;;;39.42;23.90;;;;;;;;;;5043394;28;20540;-73
2022/01/25 13:09:14;;;;;;;38.97;24.83;;;;;;;;;;5058272;28;20057;-67
2022/01/25 13:17:15;;;;;;;37.88;23.65;;;;;;;;;;5040651;28;20041;-70
2022/01/25 13:19:56;;;;;;;31.85;21.88;;;;;;;;;;5046197;28;20281;-72
2022/01/25 13:22:31;;;;;;;38.05;24.05;;;;;;;;;;5037865;28;20057;-70
2022/01/25 13:25:26;;;;;;;36.97;23.00;;;;;;;;;;5042053;28;20041;-68
2022/01/25 13:27:57;;;;;;;38.90;22.48;;;;;;;;;;5058389;28;20046;-71
2022/01/25 13:30:40;;;;;;;37.65;22.88;;;;;;;;;;5044696;28;20129;-70
2022/01/25 13:33:12;;;;;;;39.85;22.83;;;;;;;;;;5043240;28;20053;-69
2022/01/25 13:35:41;;;;;;;37.67;22.73;;;;;;;;;;5041798;28;20057;-70
2022/01/25 13:38:20;;;;;;;38.70;22.85;;;;;;;;;;5045683;28;20055;-71
2022/01/25 13:46:09;;;;;;;39.33;25.77;;;;;;;;;;5038597;28;20175;-69
2022/01/25 13:48:36;;;;;;;42.47;26.45;;;;;;;;;;5043696;28;20060;-70
2022/01/25 13:51:08;;;;;;;41.97;26.10;;;;;;;;;;5046258;28;20045;-71
2022/01/25 13:53:36;;;;;;;40.35;24.17;;;;;;;;;;5040421;28;20103;-71
2022/01/25 13:56:05;;;;;;;41.15;24.00;;;;;;;;;;5043790;28;20099;-72
2022/01/25 13:58:34;;;;;;;51.10;26.40;;;;;;;;;;5042322;28;20076;-69
2022/01/25 14:01:04;;;;;;;46.22;27.00;;;;;;;;;;5041421;28;20114;-73
2022/01/25 14:03:37;;;;;;;42.35;25.75;;;;;;;;;;5039760;28;20060;-66
2022/01/25 14:06:20;;;;;;;48.35;27.00;;;;;;;;;;5038937;28;20095;-72
2022/01/25 14:08:46;;;;;;;52.83;28.77;;;;;;;;;;5039498;28;20061;-70
2022/01/25 14:11:28;;;;;;;51.55;30.38;;;;;;;;;;5026355;28;20183;-66
2022/01/25 14:22:46;;;;;;;54.55;30.23;;;;;;;;;;5040121;28;20053;-70
2022/01/25 14:25:14;;;;;;;61.10;30.55;;;;;;;;;;5048749;28;20554;-67
2022/01/25 14:27:51;;;;;;;55.45;28.63;;;;;;;;;;5037825;28;20052;-70
2022/01/25 14:30:18;;;;;;;59.15;30.88;;;;;;;;;;5043158;28;20095;-68
2022/01/25 14:33:02;;;;;;;57.03;30.75;;;;;;;;;;5041315;28;20057;-71
2022/01/25 14:35:30;;;;;;;57.22;31.45;;;;;;;;;;5039077;28;20045;-69
2022/01/25 14:38:04;;;;;;;55.08;29.50;;;;;;;;;;5038722;28;20526;-67
2022/01/25 14:40:31;;;;;;;62.60;33.13;;;;;;;;;;5038403;28;20057;-68
2022/01/25 14:42:57;;;;;;;56.95;29.48;;;;;;;;;;5039772;28;20492;-69
2022/01/25 14:45:24;;;;;;;65.47;32.30;;;;;;;;;;5036855;28;20068;-67
2022/01/25 14:47:53;;;;;;;62.92;30.83;;;;;;;;;;5041577;28;20045;-73
2022/01/25 14:50:25;;;;;;;63.58;31.33;;;;;;;;;;5052893;28;20054;-75
2022/01/25 14:53:12;;;;;;;63.53;30.97;;;;;;;;;;5039819;28;20071;-69
2022/01/25 14:55:41;;;;;;;64.47;31.38;;;;;;;;;;5042270;28;20376;-68
2022/01/25 15:00:49;;;;;;;62.05;30.45;;;;;;;;;;5042091;28;20057;-68
2022/01/25 15:03:16;;;;;;;61.63;31.17;;;;;;;;;;5039255;28;20046;-69
2022/01/25 15:05:45;;;;;;;63.55;31.00;;;;;;;;;;5036399;28;20045;-69
2022/01/25 15:08:13;;;;;;;67.68;32.45;;;;;;;;;;5042105;28;20103;-69
2022/01/25 15:10:44;;;;;;;63.22;32.40;;;;;;;;;;5039360;28;20459;-69
2022/01/25 15:13:12;;;;;;;63.03;31.55;;;;;;;;;;5039030;28;20095;-74
2022/01/25 15:15:56;;;;;;;65.78;33.83;;;;;;;;;;5039891;28;20154;-73
2022/01/25 15:18:24;;;;;;;64.50;32.30;;;;;;;;;;5038796;28;20080;-76
2022/01/25 15:20:51;;;;;;;61.70;30.63;;;;;;;;;;5058813;28;20062;-68
2022/01/25 15:23:21;;;;;;;65.20;31.73;;;;;;;;;;5039666;28;20389;-68
2022/01/25 15:25:55;;;;;;;61.72;32.08;;;;;;;;;;5040946;28;20095;-68
2022/01/25 15:28:23;;;;;;;64.60;32.67;;;;;;;;;;5038186;28;20049;-70
2022/01/25 15:30:50;;;;;;;68.80;34.53;;;;;;;;;;5043603;28;20519;-69
2022/01/25 15:33:17;;;;;;;65.40;32.47;;;;;;;;;;5036255;28;20077;-68
2022/01/25 15:35:44;;;;;;;62.83;32.15;;;;;;;;;;5038446;28;20501;-70
2022/01/25 15:38:11;;;;;;;65.38;32.80;;;;;;;;;;5038742;28;20053;-69
2022/01/25 15:40:37;;;;;;;67.70;32.78;;;;;;;;;;5038285;28;20442;-70
2022/01/25 15:43:06;;;;;;;67.25;34.25;;;;;;;;;;5038445;28;20466;-71
2022/01/25 15:45:53;;;;;;;68.07;33.15;;;;;;;;;;5039003;28;20064;-69
2022/01/25 15:48:21;;;;;;;66.97;33.53;;;;;;;;;;5038183;28;20083;-70
2022/01/25 15:50:48;;;;;;;70.32;34.45;;;;;;;;;;5036072;28;20118;-71
2022/01/25 15:53:15;;;;;;;64.70;32.38;;;;;;;;;;5036429;28;20114;-72
2022/01/25 15:55:42;;;;;;;66.72;31.77;;;;;;;;;;5039251;28;20107;-72
2022/01/25 15:58:08;;;;;;;70.00;34.58;;;;;;;;;;5039318;28;20050;-71
2022/01/25 16:00:36;;;;;;;63.47;31.80;;;;;;;;;;5039916;28;20098;-72
2022/01/25 16:03:03;;;;;;;66.65;33.15;;;;;;;;;;5038688;28;20053;-71
2022/01/25 16:05:30;;;;;;;66.35;30.52;;;;;;;;;;5041771;28;20133;-72
2022/01/25 16:07:57;;;;;;;66.10;31.85;;;;;;;;;;5039068;28;20107;-73
2022/01/25 16:10:23;;;;;;;65.88;32.63;;;;;;;;;;5039568;28;20080;-74
2022/01/25 16:12:50;;;;;;;66.97;32.72;;;;;;;;;;5038433;28;20044;-74
2022/01/25 16:15:17;;;;;;;68.13;32.03;;;;;;;;;;5038160;28;20042;-74
2022/01/25 16:17:43;;;;;;;73.47;35.70;;;;;;;;;;5041642;28;20055;-76
2022/01/25 16:20:10;;;;;;;69.63;34.35;;;;;;;;;;5045016;28;20049;-74
2022/01/25 16:22:37;;;;;;;69.45;31.70;;;;;;;;;;5026452;28;20095;-72
2022/01/25 16:25:04;;;;;;;63.65;32.50;;;;;;;;;;5042053;28;20111;-71
2022/01/25 16:27:31;;;;;;;71.00;33.15;;;;;;;;;;5041370;28;20052;-71
2022/01/25 16:29:57;;;;;;;66.72;32.25;;;;;;;;;;5039897;28;20103;-67
2022/01/25 16:32:25;;;;;;;71.10;34.05;;;;;;;;;;5005113;28;20495;-71
2022/01/25 16:34:52;;;;;;;68.30;32.83;;;;;;;;;;5019902;28;20155;-69
2022/01/25 16:37:18;;;;;;;72.13;33.25;;;;;;;;;;5022030;28;20042;-67
2022/01/25 16:39:45;;;;;;;79.25;34.70;;;;;;;;;;5023564;28;20497;-69
2022/01/25 16:42:11;;;;;;;78.68;36.78;;;;;;;;;;5023435;28;20123;-69
2022/01/25 16:45:00;;;;;;;73.10;33.17;;;;;;;;;;5023485;28;20057;-70
2022/01/25 16:47:31;;;;;;;65.85;32.67;;;;;;;;;;5020207;28;20054;-68
2022/01/25 16:49:59;;;;;;;67.22;33.25;;;;;;;;;;5023278;28;20050;-69
2022/01/25 16:52:26;;;;;;;71.28;32.80;;;;;;;;;;5020641;28;20112;-69
2022/01/25 16:54:52;;;;;;;66.03;34.05;;;;;;;;;;5022270;28;20065;-69
2022/01/25 16:57:39;;;;;;;67.28;33.13;;;;;;;;;;5022929;28;20477;-68
2022/01/25 17:00:09;;;;;;;65.07;31.52;;;;;;;;;;5023879;28;20099;-68
2022/01/25 17:02:36;;;;;;;68.30;32.38;;;;;;;;;;5022610;28;20057;-69
2022/01/25 17:05:04;;;;;;;71.00;33.22;;;;;;;;;;5019798;28;20077;-68
2022/01/25 17:07:30;;;;;;;69.15;32.63;;;;;;;;;;5019401;28;20509;-69
2022/01/25 17:09:57;;;;;;;70.65;31.75;;;;;;;;;;5024433;28;20050;-70
2022/01/25 17:12:25;;;;;;;70.05;32.78;;;;;;;;;;5017624;28;20068;-67
2022/01/25 17:15:07;;;;;;;72.85;33.42;;;;;;;;;;5025168;28;20130;-69
2022/01/25 17:17:34;;;;;;;73.40;33.33;;;;;;;;;;5022345;28;20050;-68
2022/01/25 17:20:01;;;;;;;71.32;32.30;;;;;;;;;;5023542;28;20104;-69
2022/01/25 17:22:27;;;;;;;69.68;31.90;;;;;;;;;;5026195;28;20497;-68
2022/01/25 17:24:54;;;;;;;74.95;33.13;;;;;;;;;;5022989;28;20124;-68
2022/01/25 17:27:21;;;;;;;71.05;33.65;;;;;;;;;;5020323;28;20050;-69
2022/01/25 17:29:49;;;;;;;66.85;32.67;;;;;;;;;;5024633;28;20482;-68
2022/01/25 17:32:16;;;;;;;74.10;32.60;;;;;;;;;;5023065;28;20046;-69
2022/01/25 17:34:43;;;;;;;77.22;31.70;;;;;;;;;;5018684;28;20085;-69
2022/01/25 17:37:16;;;;;;;72.07;33.45;;;;;;;;;;5019551;28;20052;-66
2022/01/25 17:39:43;;;;;;;68.00;32.25;;;;;;;;;;5019678;28;20589;-69
2022/01/25 17:42:10;;;;;;;69.40;32.42;;;;;;;;;;5019917;28;20049;-69
2022/01/25 17:44:37;;;;;;;68.50;32.25;;;;;;;;;;5017152;28;20840;-69
2022/01/25 17:47:04;;;;;;;73.78;33.08;;;;;;;;;;5017698;28;20091;-68
2022/01/25 17:49:31;;;;;;;77.00;34.92;;;;;;;;;;5017197;28;20061;-69
2022/01/25 17:51:58;;;;;;;73.43;32.60;;;;;;;;;;5017327;28;20515;-69